sensor_id;sensor_type;location;lat;lon;timestamp;P1;durP1;ratioP1;P2;durP2;ratioP2
44165;SDS011;30476;53.468;9.826;2022-11-04T00:01:47;4.20;;;3.40;;
44165;SDS011;30476;53.468;9.826;2022-11-04T00:04:14;8.13;;;5.77;;
44165;SDS011;30476;53.468;9.826;2022-11-04T00:06:41;5.90;;;4.90;;
44165;SDS011;30476;53.468;9.826;2022-11-04T00:09:07;3.23;;;2.93;;
44165;SDS011;30476;53.468;9.826;2022-11-04T00:11:35;2.10;;;2.00;;
44165;SDS011;30476;53.468;9.826;2022-11-04T00:14:20;7.13;;;4.20;;
44165;SDS011;30476;53.468;9.826;2022-11-04T00:16:46;9.73;;;6.83;;
44165;SDS011;30476;53.468;9.826;2022-11-04T00:19:30;3.87;;;3.47;;
44165;SDS011;30476;53.468;9.826;2022-11-04T00:22:16;4.17;;;3.87;;
44165;SDS011;30476;53.468;9.826;2022-11-04T00:25:14;3.00;;;2.80;;
44165;SDS011;30476;53.468;9.826;2022-11-04T00:28:04;3.87;;;2.60;;
44165;SDS011;30476;53.468;9.826;2022-11-04T00:30:53;4.67;;;3.03;;
44165;SDS011;30476;53.468;9.826;2022-11-04T00:33:20;5.40;;;4.80;;
44165;SDS011;30476;53.468;9.826;2022-11-04T00:35:53;4.43;;;4.10;;
44165;SDS011;30476;53.468;9.826;2022-11-04T00:38:22;7.70;;;5.80;;
44165;SDS011;30476;53.468;9.826;2022-11-04T00:40:48;10.30;;;8.17;;
44165;SDS011;30476;53.468;9.826;2022-11-04T00:43:14;3.83;;;3.20;;
44165;SDS011;30476;53.468;9.826;2022-11-04T00:45:40;7.43;;;5.03;;
44165;SDS011;30476;53.468;9.826;2022-11-04T00:48:07;4.90;;;4.40;;
44165;SDS011;30476;53.468;9.826;2022-11-04T00:50:33;4.23;;;3.83;;
44165;SDS011;30476;53.468;9.826;2022-11-04T00:53:00;3.70;;;3.40;;
44165;SDS011;30476;53.468;9.826;2022-11-04T00:55:26;6.47;;;3.60;;
44165;SDS011;30476;53.468;9.826;2022-11-04T00:57:53;2.77;;;2.57;;
44165;SDS011;30476;53.468;9.826;2022-11-04T01:00:19;8.10;;;5.83;;
44165;SDS011;30476;53.468;9.826;2022-11-04T01:02:45;4.33;;;3.60;;
44165;SDS011;30476;53.468;9.826;2022-11-04T01:05:11;4.93;;;4.40;;
44165;SDS011;30476;53.468;9.826;2022-11-04T01:07:38;5.03;;;3.60;;
44165;SDS011;30476;53.468;9.826;2022-11-04T01:10:04;4.40;;;4.00;;
44165;SDS011;30476;53.468;9.826;2022-11-04T01:12:31;5.93;;;3.70;;
44165;SDS011;30476;53.468;9.826;2022-11-04T01:14:57;4.30;;;3.90;;
44165;SDS011;30476;53.468;9.826;2022-11-04T01:17:23;3.73;;;3.50;;
44165;SDS011;30476;53.468;9.826;2022-11-04T01:19:49;4.83;;;3.23;;
44165;SDS011;30476;53.468;9.826;2022-11-04T01:22:15;2.87;;;2.50;;
44165;SDS011;30476;53.468;9.826;2022-11-04T01:24:41;3.87;;;3.30;;
44165;SDS011;30476;53.468;9.826;2022-11-04T01:27:07;3.43;;;3.13;;
44165;SDS011;30476;53.468;9.826;2022-11-04T01:29:32;3.00;;;2.80;;
44165;SDS011;30476;53.468;9.826;2022-11-04T01:31:58;3.63;;;2.90;;
44165;SDS011;30476;53.468;9.826;2022-11-04T01:34:24;3.80;;;3.50;;
44165;SDS011;30476;53.468;9.826;2022-11-04T01:36:50;4.30;;;2.63;;
44165;SDS011;30476;53.468;9.826;2022-11-04T01:39:15;2.83;;;2.40;;
44165;SDS011;30476;53.468;9.826;2022-11-04T01:41:41;3.93;;;2.70;;
44165;SDS011;30476;53.468;9.826;2022-11-04T01:47:13;3.83;;;3.10;;
44165;SDS011;30476;53.468;9.826;2022-11-04T01:49:40;3.07;;;2.63;;
44165;SDS011;30476;53.468;9.826;2022-11-04T01:52:09;2.70;;;2.60;;
44165;SDS011;30476;53.468;9.826;2022-11-04T01:54:39;2.80;;;2.37;;
44165;SDS011;30476;53.468;9.826;2022-11-04T01:57:08;3.53;;;3.30;;
44165;SDS011;30476;53.468;9.826;2022-11-04T01:59:40;3.20;;;2.90;;
44165;SDS011;30476;53.468;9.826;2022-11-04T02:02:07;3.43;;;3.13;;
44165;SDS011;30476;53.468;9.826;2022-11-04T02:04:32;3.63;;;3.33;;
44165;SDS011;30476;53.468;9.826;2022-11-04T02:07:05;3.33;;;2.83;;
44165;SDS011;30476;53.468;9.826;2022-11-04T02:09:34;3.87;;;2.80;;
44165;SDS011;30476;53.468;9.826;2022-11-04T02:12:01;3.63;;;2.73;;
44165;SDS011;30476;53.468;9.826;2022-11-04T02:14:47;2.70;;;2.50;;
44165;SDS011;30476;53.468;9.826;2022-11-04T02:22:28;4.80;;;3.20;;
44165;SDS011;30476;53.468;9.826;2022-11-04T02:30:24;3.10;;;2.80;;
44165;SDS011;30476;53.468;9.826;2022-11-04T02:33:10;3.87;;;3.47;;
44165;SDS011;30476;53.468;9.826;2022-11-04T02:41:06;3.33;;;3.03;;
44165;SDS011;30476;53.468;9.826;2022-11-04T02:43:40;3.73;;;3.30;;
44165;SDS011;30476;53.468;9.826;2022-11-04T02:46:35;7.30;;;3.00;;
44165;SDS011;30476;53.468;9.826;2022-11-04T02:49:15;3.17;;;2.80;;
44165;SDS011;30476;53.468;9.826;2022-11-04T02:52:01;3.70;;;3.40;;
44165;SDS011;30476;53.468;9.826;2022-11-04T02:54:39;3.50;;;3.10;;
44165;SDS011;30476;53.468;9.826;2022-11-04T02:57:12;3.80;;;3.57;;
44165;SDS011;30476;53.468;9.826;2022-11-04T02:59:45;3.73;;;2.93;;
44165;SDS011;30476;53.468;9.826;2022-11-04T03:02:15;4.50;;;3.90;;
44165;SDS011;30476;53.468;9.826;2022-11-04T03:04:47;4.03;;;3.63;;
44165;SDS011;30476;53.468;9.826;2022-11-04T03:07:16;3.37;;;3.13;;
44165;SDS011;30476;53.468;9.826;2022-11-04T03:09:49;5.13;;;3.43;;
44165;SDS011;30476;53.468;9.826;2022-11-04T03:12:19;4.17;;;3.60;;
44165;SDS011;30476;53.468;9.826;2022-11-04T03:14:52;3.90;;;3.60;;
44165;SDS011;30476;53.468;9.826;2022-11-04T03:17:40;3.67;;;3.47;;
44165;SDS011;30476;53.468;9.826;2022-11-04T03:20:13;4.00;;;3.43;;
44165;SDS011;30476;53.468;9.826;2022-11-04T03:22:45;5.03;;;3.60;;
44165;SDS011;30476;53.468;9.826;2022-11-04T03:25:11;4.87;;;4.47;;
44165;SDS011;30476;53.468;9.826;2022-11-04T03:30:50;4.10;;;3.20;;
44165;SDS011;30476;53.468;9.826;2022-11-04T03:33:25;3.97;;;3.67;;
44165;SDS011;30476;53.468;9.826;2022-11-04T03:35:56;4.60;;;4.20;;
44165;SDS011;30476;53.468;9.826;2022-11-04T03:38:22;7.03;;;4.33;;
44165;SDS011;30476;53.468;9.826;2022-11-04T03:40:48;4.93;;;4.13;;
44165;SDS011;30476;53.468;9.826;2022-11-04T03:43:16;3.93;;;3.70;;
44165;SDS011;30476;53.468;9.826;2022-11-04T03:45:47;5.07;;;3.93;;
44165;SDS011;30476;53.468;9.826;2022-11-04T03:48:14;4.70;;;4.20;;
44165;SDS011;30476;53.468;9.826;2022-11-04T03:50:41;5.87;;;5.37;;
44165;SDS011;30476;53.468;9.826;2022-11-04T03:53:08;4.17;;;3.87;;
44165;SDS011;30476;53.468;9.826;2022-11-04T03:55:43;5.40;;;4.90;;
44165;SDS011;30476;53.468;9.826;2022-11-04T04:06:53;3.37;;;3.17;;
44165;SDS011;30476;53.468;9.826;2022-11-04T04:09:36;5.50;;;3.70;;
44165;SDS011;30476;53.468;9.826;2022-11-04T04:12:09;3.23;;;3.03;;
44165;SDS011;30476;53.468;9.826;2022-11-04T04:14:57;3.37;;;3.17;;
44165;SDS011;30476;53.468;9.826;2022-11-04T04:17:33;3.20;;;2.90;;
44165;SDS011;30476;53.468;9.826;2022-11-04T04:20:04;3.20;;;3.00;;
44165;SDS011;30476;53.468;9.826;2022-11-04T04:22:35;3.70;;;3.40;;
44165;SDS011;30476;53.468;9.826;2022-11-04T04:25:07;2.13;;;2.03;;
44165;SDS011;30476;53.468;9.826;2022-11-04T04:27:54;2.60;;;2.40;;
44165;SDS011;30476;53.468;9.826;2022-11-04T04:30:21;2.97;;;1.83;;
44165;SDS011;30476;53.468;9.826;2022-11-04T04:32:49;2.03;;;1.93;;
44165;SDS011;30476;53.468;9.826;2022-11-04T04:35:24;1.73;;;1.63;;
44165;SDS011;30476;53.468;9.826;2022-11-04T04:38:24;1.73;;;1.40;;
44165;SDS011;30476;53.468;9.826;2022-11-04T04:43:57;1.50;;;1.40;;
44165;SDS011;30476;53.468;9.826;2022-11-04T04:46:42;1.70;;;1.60;;
44165;SDS011;30476;53.468;9.826;2022-11-04T04:49:09;1.83;;;1.73;;
44165;SDS011;30476;53.468;9.826;2022-11-04T04:51:38;1.73;;;1.60;;
44165;SDS011;30476;53.468;9.826;2022-11-04T04:54:07;1.60;;;1.50;;
44165;SDS011;30476;53.468;9.826;2022-11-04T04:56:33;1.70;;;1.60;;
44165;SDS011;30476;53.468;9.826;2022-11-04T04:58:58;1.40;;;1.30;;
44165;SDS011;30476;53.468;9.826;2022-11-04T05:01:24;1.40;;;1.30;;
44165;SDS011;30476;53.468;9.826;2022-11-04T05:03:50;2.13;;;1.47;;
44165;SDS011;30476;53.468;9.826;2022-11-04T05:06:16;1.57;;;1.47;;
44165;SDS011;30476;53.468;9.826;2022-11-04T05:08:42;1.40;;;1.30;;
44165;SDS011;30476;53.468;9.826;2022-11-04T05:11:07;1.40;;;1.30;;
44165;SDS011;30476;53.468;9.826;2022-11-04T05:13:34;1.40;;;1.30;;
44165;SDS011;30476;53.468;9.826;2022-11-04T05:16:03;2.07;;;1.40;;
44165;SDS011;30476;53.468;9.826;2022-11-04T05:18:31;2.20;;;2.00;;
44165;SDS011;30476;53.468;9.826;2022-11-04T05:20:57;2.00;;;1.80;;
44165;SDS011;30476;53.468;9.826;2022-11-04T05:23:23;1.60;;;1.50;;
44165;SDS011;30476;53.468;9.826;2022-11-04T05:25:48;1.83;;;1.73;;
44165;SDS011;30476;53.468;9.826;2022-11-04T05:28:14;1.80;;;1.70;;
44165;SDS011;30476;53.468;9.826;2022-11-04T05:30:40;1.67;;;1.57;;
44165;SDS011;30476;53.468;9.826;2022-11-04T05:33:06;2.03;;;1.90;;
44165;SDS011;30476;53.468;9.826;2022-11-04T05:35:32;2.00;;;1.90;;
44165;SDS011;30476;53.468;9.826;2022-11-04T05:37:58;2.23;;;1.90;;
44165;SDS011;30476;53.468;9.826;2022-11-04T05:40:24;1.90;;;1.80;;
44165;SDS011;30476;53.468;9.826;2022-11-04T05:42:50;2.20;;;2.10;;
44165;SDS011;30476;53.468;9.826;2022-11-04T05:45:15;2.40;;;1.90;;
44165;SDS011;30476;53.468;9.826;2022-11-04T05:47:41;1.80;;;1.70;;
44165;SDS011;30476;53.468;9.826;2022-11-04T05:50:07;2.70;;;2.00;;
44165;SDS011;30476;53.468;9.826;2022-11-04T05:52:33;2.50;;;1.87;;
44165;SDS011;30476;53.468;9.826;2022-11-04T05:54:59;2.37;;;2.17;;
44165;SDS011;30476;53.468;9.826;2022-11-04T05:57:25;1.97;;;1.87;;
44165;SDS011;30476;53.468;9.826;2022-11-04T05:59:50;1.70;;;1.60;;
44165;SDS011;30476;53.468;9.826;2022-11-04T06:02:16;1.70;;;1.60;;
44165;SDS011;30476;53.468;9.826;2022-11-04T06:04:42;1.70;;;1.60;;
44165;SDS011;30476;53.468;9.826;2022-11-04T06:07:08;2.37;;;2.17;;
44165;SDS011;30476;53.468;9.826;2022-11-04T06:09:34;2.40;;;2.20;;
44165;SDS011;30476;53.468;9.826;2022-11-04T06:12:09;2.23;;;2.07;;
44165;SDS011;30476;53.468;9.826;2022-11-04T06:14:40;1.90;;;1.80;;
44165;SDS011;30476;53.468;9.826;2022-11-04T06:17:06;2.20;;;2.10;;
44165;SDS011;30476;53.468;9.826;2022-11-04T06:19:33;2.60;;;2.40;;
44165;SDS011;30476;53.468;9.826;2022-11-04T06:21:59;3.70;;;2.03;;
44165;SDS011;30476;53.468;9.826;2022-11-04T06:24:25;3.77;;;2.00;;
44165;SDS011;30476;53.468;9.826;2022-11-04T06:26:51;2.10;;;2.00;;
44165;SDS011;30476;53.468;9.826;2022-11-04T06:29:17;2.53;;;2.33;;
44165;SDS011;30476;53.468;9.826;2022-11-04T06:31:43;3.23;;;2.90;;
44165;SDS011;30476;53.468;9.826;2022-11-04T06:34:08;2.53;;;2.33;;
44165;SDS011;30476;53.468;9.826;2022-11-04T06:36:34;2.70;;;2.50;;
44165;SDS011;30476;53.468;9.826;2022-11-04T06:39:00;3.33;;;3.13;;
44165;SDS011;30476;53.468;9.826;2022-11-04T06:41:27;2.40;;;2.30;;
44165;SDS011;30476;53.468;9.826;2022-11-04T06:43:53;3.07;;;2.87;;
44165;SDS011;30476;53.468;9.826;2022-11-04T06:46:30;2.77;;;2.57;;
44165;SDS011;30476;53.468;9.826;2022-11-04T06:49:01;3.53;;;3.23;;
44165;SDS011;30476;53.468;9.826;2022-11-04T06:51:27;3.70;;;3.40;;
44165;SDS011;30476;53.468;9.826;2022-11-04T06:53:52;3.80;;;3.60;;
44165;SDS011;30476;53.468;9.826;2022-11-04T06:56:18;3.60;;;3.10;;
44165;SDS011;30476;53.468;9.826;2022-11-04T06:58:47;3.47;;;3.20;;
44165;SDS011;30476;53.468;9.826;2022-11-04T07:01:14;4.13;;;3.80;;
44165;SDS011;30476;53.468;9.826;2022-11-04T07:03:41;3.30;;;3.10;;
44165;SDS011;30476;53.468;9.826;2022-11-04T07:06:08;3.93;;;3.53;;
44165;SDS011;30476;53.468;9.826;2022-11-04T07:08:34;3.70;;;3.20;;
44165;SDS011;30476;53.468;9.826;2022-11-04T07:11:01;3.60;;;3.30;;
44165;SDS011;30476;53.468;9.826;2022-11-04T07:13:27;4.33;;;4.03;;
44165;SDS011;30476;53.468;9.826;2022-11-04T07:15:53;4.60;;;4.30;;
44165;SDS011;30476;53.468;9.826;2022-11-04T07:18:19;4.20;;;3.90;;
44165;SDS011;30476;53.468;9.826;2022-11-04T07:20:45;5.03;;;4.63;;
44165;SDS011;30476;53.468;9.826;2022-11-04T07:23:11;5.47;;;4.73;;
44165;SDS011;30476;53.468;9.826;2022-11-04T07:25:37;4.43;;;4.03;;
44165;SDS011;30476;53.468;9.826;2022-11-04T07:28:03;4.73;;;4.33;;
44165;SDS011;30476;53.468;9.826;2022-11-04T07:30:30;4.40;;;4.10;;
44165;SDS011;30476;53.468;9.826;2022-11-04T07:32:56;4.70;;;4.30;;
44165;SDS011;30476;53.468;9.826;2022-11-04T07:35:22;5.37;;;4.27;;
44165;SDS011;30476;53.468;9.826;2022-11-04T07:37:48;4.70;;;4.40;;
44165;SDS011;30476;53.468;9.826;2022-11-04T07:40:14;5.10;;;4.70;;
44165;SDS011;30476;53.468;9.826;2022-11-04T07:42:40;4.63;;;4.30;;
44165;SDS011;30476;53.468;9.826;2022-11-04T07:45:06;5.67;;;5.27;;
44165;SDS011;30476;53.468;9.826;2022-11-04T07:47:32;5.47;;;4.43;;
44165;SDS011;30476;53.468;9.826;2022-11-04T07:49:58;5.83;;;5.30;;
44165;SDS011;30476;53.468;9.826;2022-11-04T07:52:24;5.17;;;4.77;;
44165;SDS011;30476;53.468;9.826;2022-11-04T07:54:50;5.53;;;4.83;;
44165;SDS011;30476;53.468;9.826;2022-11-04T07:57:16;4.57;;;4.27;;
44165;SDS011;30476;53.468;9.826;2022-11-04T07:59:41;4.70;;;4.40;;
44165;SDS011;30476;53.468;9.826;2022-11-04T08:02:08;8.10;;;5.00;;
44165;SDS011;30476;53.468;9.826;2022-11-04T08:04:35;5.23;;;4.30;;
44165;SDS011;30476;53.468;9.826;2022-11-04T08:07:01;5.93;;;4.73;;
44165;SDS011;30476;53.468;9.826;2022-11-04T08:09:27;4.17;;;3.87;;
44165;SDS011;30476;53.468;9.826;2022-11-04T08:11:53;4.43;;;4.07;;
44165;SDS011;30476;53.468;9.826;2022-11-04T08:14:19;5.20;;;4.47;;
44165;SDS011;30476;53.468;9.826;2022-11-04T08:16:45;4.60;;;4.20;;
44165;SDS011;30476;53.468;9.826;2022-11-04T08:19:14;5.10;;;4.40;;
44165;SDS011;30476;53.468;9.826;2022-11-04T08:21:39;5.20;;;4.80;;
44165;SDS011;30476;53.468;9.826;2022-11-04T08:24:05;4.77;;;4.43;;
44165;SDS011;30476;53.468;9.826;2022-11-04T08:26:31;5.27;;;4.87;;
44165;SDS011;30476;53.468;9.826;2022-11-04T08:28:57;4.77;;;4.47;;
44165;SDS011;30476;53.468;9.826;2022-11-04T08:31:24;5.67;;;4.50;;
44165;SDS011;30476;53.468;9.826;2022-11-04T08:33:53;4.20;;;3.90;;
44165;SDS011;30476;53.468;9.826;2022-11-04T08:36:21;4.83;;;4.50;;
44165;SDS011;30476;53.468;9.826;2022-11-04T08:38:50;5.93;;;5.33;;
44165;SDS011;30476;53.468;9.826;2022-11-04T08:41:17;4.17;;;3.70;;
44165;SDS011;30476;53.468;9.826;2022-11-04T08:43:45;4.57;;;4.17;;
44165;SDS011;30476;53.468;9.826;2022-11-04T08:46:11;4.50;;;4.10;;
44165;SDS011;30476;53.468;9.826;2022-11-04T08:48:38;4.37;;;4.03;;
44165;SDS011;30476;53.468;9.826;2022-11-04T08:51:06;3.90;;;3.50;;
44165;SDS011;30476;53.468;9.826;2022-11-04T08:53:36;3.73;;;3.43;;
44165;SDS011;30476;53.468;9.826;2022-11-04T08:56:09;4.90;;;4.00;;
44165;SDS011;30476;53.468;9.826;2022-11-04T08:58:36;4.43;;;3.30;;
44165;SDS011;30476;53.468;9.826;2022-11-04T09:01:03;3.53;;;3.33;;
44165;SDS011;30476;53.468;9.826;2022-11-04T09:03:29;3.23;;;3.00;;
44165;SDS011;30476;53.468;9.826;2022-11-04T09:05:56;2.80;;;2.60;;
44165;SDS011;30476;53.468;9.826;2022-11-04T09:08:22;3.30;;;3.10;;
44165;SDS011;30476;53.468;9.826;2022-11-04T09:10:48;3.07;;;2.87;;
44165;SDS011;30476;53.468;9.826;2022-11-04T09:13:14;2.93;;;2.73;;
44165;SDS011;30476;53.468;9.826;2022-11-04T09:15:40;3.10;;;2.90;;
44165;SDS011;30476;53.468;9.826;2022-11-04T09:18:06;4.17;;;2.77;;
44165;SDS011;30476;53.468;9.826;2022-11-04T09:20:32;2.60;;;2.40;;
44165;SDS011;30476;53.468;9.826;2022-11-04T09:23:02;2.97;;;2.77;;
44165;SDS011;30476;53.468;9.826;2022-11-04T09:25:29;2.60;;;2.40;;
44165;SDS011;30476;53.468;9.826;2022-11-04T09:27:57;4.20;;;2.50;;
44165;SDS011;30476;53.468;9.826;2022-11-04T09:30:23;3.13;;;2.93;;
44165;SDS011;30476;53.468;9.826;2022-11-04T09:32:49;3.37;;;3.13;;
44165;SDS011;30476;53.468;9.826;2022-11-04T09:35:15;2.67;;;2.50;;
44165;SDS011;30476;53.468;9.826;2022-11-04T09:37:42;2.93;;;2.73;;
44165;SDS011;30476;53.468;9.826;2022-11-04T09:40:16;3.73;;;3.53;;
44165;SDS011;30476;53.468;9.826;2022-11-04T09:45:23;4.10;;;3.80;;
44165;SDS011;30476;53.468;9.826;2022-11-04T09:47:56;3.63;;;3.10;;
44165;SDS011;30476;53.468;9.826;2022-11-04T09:50:26;4.73;;;3.83;;
44165;SDS011;30476;53.468;9.826;2022-11-04T09:53:06;4.27;;;3.87;;
44165;SDS011;30476;53.468;9.826;2022-11-04T09:55:39;4.60;;;4.20;;
44165;SDS011;30476;53.468;9.826;2022-11-04T09:58:11;4.60;;;4.20;;
44165;SDS011;30476;53.468;9.826;2022-11-04T10:00:39;3.90;;;3.60;;
44165;SDS011;30476;53.468;9.826;2022-11-04T10:06:25;3.87;;;3.57;;
44165;SDS011;30476;53.468;9.826;2022-11-04T10:12:18;4.60;;;4.30;;
44165;SDS011;30476;53.468;9.826;2022-11-04T10:15:17;3.60;;;3.40;;
44165;SDS011;30476;53.468;9.826;2022-11-04T10:21:07;4.00;;;3.60;;
44165;SDS011;30476;53.468;9.826;2022-11-04T10:29:47;3.23;;;3.03;;
44165;SDS011;30476;53.468;9.826;2022-11-04T10:32:21;4.20;;;3.80;;
44165;SDS011;30476;53.468;9.826;2022-11-04T10:34:56;4.00;;;3.60;;
44165;SDS011;30476;53.468;9.826;2022-11-04T10:37:26;3.80;;;3.50;;
44165;SDS011;30476;53.468;9.826;2022-11-04T10:39:55;3.87;;;3.57;;
44165;SDS011;30476;53.468;9.826;2022-11-04T10:42:29;3.40;;;3.10;;
44165;SDS011;30476;53.468;9.826;2022-11-04T10:44:57;3.57;;;3.37;;
44165;SDS011;30476;53.468;9.826;2022-11-04T10:47:29;6.03;;;5.50;;
44165;SDS011;30476;53.468;9.826;2022-11-04T10:52:45;2.17;;;2.07;;
44165;SDS011;30476;53.468;9.826;2022-11-04T10:55:45;2.53;;;2.33;;
44165;SDS011;30476;53.468;9.826;2022-11-04T10:58:07;2.10;;;1.90;;
44165;SDS011;30476;53.468;9.826;2022-11-04T11:00:42;1.90;;;1.80;;
44165;SDS011;30476;53.468;9.826;2022-11-04T11:03:28;2.87;;;2.67;;
44165;SDS011;30476;53.468;9.826;2022-11-04T11:06:08;2.97;;;2.07;;
44165;SDS011;30476;53.468;9.826;2022-11-04T11:08:37;2.17;;;2.00;;
44165;SDS011;30476;53.468;9.826;2022-11-04T11:11:06;2.03;;;1.90;;
44165;SDS011;30476;53.468;9.826;2022-11-04T11:13:33;2.23;;;2.13;;
44165;SDS011;30476;53.468;9.826;2022-11-04T11:16:06;2.10;;;2.00;;
44165;SDS011;30476;53.468;9.826;2022-11-04T11:18:43;2.80;;;2.60;;
44165;SDS011;30476;53.468;9.826;2022-11-04T11:21:13;1.90;;;1.67;;
44165;SDS011;30476;53.468;9.826;2022-11-04T11:23:46;1.50;;;1.40;;
44165;SDS011;30476;53.468;9.826;2022-11-04T11:26:20;1.33;;;1.23;;
44165;SDS011;30476;53.468;9.826;2022-11-04T11:28:54;3.83;;;1.10;;
44165;SDS011;30476;53.468;9.826;2022-11-04T11:31:21;1.20;;;1.10;;
44165;SDS011;30476;53.468;9.826;2022-11-04T11:33:54;1.20;;;1.10;;
44165;SDS011;30476;53.468;9.826;2022-11-04T11:36:24;1.30;;;1.20;;
44165;SDS011;30476;53.468;9.826;2022-11-04T11:39:26;1.30;;;1.20;;
44165;SDS011;30476;53.468;9.826;2022-11-04T11:41:50;1.13;;;1.03;;
44165;SDS011;30476;53.468;9.826;2022-11-04T11:44:31;1.23;;;1.00;;
44165;SDS011;30476;53.468;9.826;2022-11-04T11:49:43;1.60;;;0.93;;
44165;SDS011;30476;53.468;9.826;2022-11-04T12:00:49;0.70;;;0.70;;
44165;SDS011;30476;53.468;9.826;2022-11-04T12:03:21;1.27;;;0.60;;
44165;SDS011;30476;53.468;9.826;2022-11-04T12:06:31;2.30;;;0.60;;
44165;SDS011;30476;53.468;9.826;2022-11-04T12:15:02;0.60;;;0.50;;
44165;SDS011;30476;53.468;9.826;2022-11-04T12:17:57;1.03;;;0.50;;
44165;SDS011;30476;53.468;9.826;2022-11-04T12:20:51;1.47;;;0.60;;
44165;SDS011;30476;53.468;9.826;2022-11-04T12:23:28;2.43;;;0.60;;
44165;SDS011;30476;53.468;9.826;2022-11-04T12:29:02;0.80;;;0.70;;
44165;SDS011;30476;53.468;9.826;2022-11-04T12:31:47;0.93;;;0.70;;
44165;SDS011;30476;53.468;9.826;2022-11-04T12:34:27;2.03;;;0.80;;
44165;SDS011;30476;53.468;9.826;2022-11-04T12:45:29;0.60;;;0.60;;
44165;SDS011;30476;53.468;9.826;2022-11-04T12:48:09;2.27;;;0.90;;
44165;SDS011;30476;53.468;9.826;2022-11-04T12:50:47;0.80;;;0.50;;
44165;SDS011;30476;53.468;9.826;2022-11-04T12:56:32;3.23;;;0.67;;
44165;SDS011;30476;53.468;9.826;2022-11-04T13:01:52;1.10;;;0.70;;
44165;SDS011;30476;53.468;9.826;2022-11-04T13:04:29;3.30;;;0.70;;
44165;SDS011;30476;53.468;9.826;2022-11-04T13:07:00;2.10;;;0.77;;
44165;SDS011;30476;53.468;9.826;2022-11-04T13:09:31;1.27;;;0.60;;
44165;SDS011;30476;53.468;9.826;2022-11-04T13:12:07;3.70;;;0.70;;
44165;SDS011;30476;53.468;9.826;2022-11-04T13:17:18;3.23;;;1.80;;
44165;SDS011;30476;53.468;9.826;2022-11-04T13:19:49;1.27;;;0.80;;
44165;SDS011;30476;53.468;9.826;2022-11-04T13:22:24;3.13;;;0.80;;
44165;SDS011;30476;53.468;9.826;2022-11-04T13:25:00;0.70;;;0.60;;
44165;SDS011;30476;53.468;9.826;2022-11-04T13:27:31;2.27;;;0.80;;
44165;SDS011;30476;53.468;9.826;2022-11-04T13:30:04;0.97;;;0.70;;
44165;SDS011;30476;53.468;9.826;2022-11-04T13:32:48;1.50;;;1.10;;
44165;SDS011;30476;53.468;9.826;2022-11-04T13:38:49;3.40;;;1.00;;
44165;SDS011;30476;53.468;9.826;2022-11-04T13:44:22;5.10;;;0.80;;
44165;SDS011;30476;53.468;9.826;2022-11-04T13:46:51;2.17;;;0.73;;
44165;SDS011;30476;53.468;9.826;2022-11-04T13:49:23;1.90;;;0.80;;
44165;SDS011;30476;53.468;9.826;2022-11-04T13:52:06;4.10;;;0.70;;
44165;SDS011;30476;53.468;9.826;2022-11-04T13:54:40;2.40;;;0.60;;
44165;SDS011;30476;53.468;9.826;2022-11-04T13:57:15;1.57;;;0.70;;
44165;SDS011;30476;53.468;9.826;2022-11-04T14:00:04;3.03;;;0.80;;
44165;SDS011;30476;53.468;9.826;2022-11-04T14:10:38;1.23;;;0.70;;
44165;SDS011;30476;53.468;9.826;2022-11-04T14:18:27;4.93;;;0.73;;
44165;SDS011;30476;53.468;9.826;2022-11-04T14:21:11;2.27;;;0.70;;
44165;SDS011;30476;53.468;9.826;2022-11-04T14:23:51;1.23;;;0.80;;
44165;SDS011;30476;53.468;9.826;2022-11-04T14:26:22;3.33;;;1.27;;
44165;SDS011;30476;53.468;9.826;2022-11-04T14:29:06;1.33;;;0.73;;
44165;SDS011;30476;53.468;9.826;2022-11-04T14:31:44;1.27;;;0.80;;
44165;SDS011;30476;53.468;9.826;2022-11-04T14:36:57;1.83;;;0.80;;
44165;SDS011;30476;53.468;9.826;2022-11-04T14:39:31;1.27;;;0.70;;
44165;SDS011;30476;53.468;9.826;2022-11-04T14:42:03;4.17;;;0.90;;
44165;SDS011;30476;53.468;9.826;2022-11-04T14:47:06;1.57;;;1.47;;
44165;SDS011;30476;53.468;9.826;2022-11-04T14:49:50;2.10;;;0.73;;
44165;SDS011;30476;53.468;9.826;2022-11-04T14:52:27;2.20;;;0.70;;
44165;SDS011;30476;53.468;9.826;2022-11-04T14:55:41;4.00;;;0.90;;
44165;SDS011;30476;53.468;9.826;2022-11-04T14:57:52;1.00;;;0.80;;
44165;SDS011;30476;53.468;9.826;2022-11-04T15:03:09;0.93;;;0.77;;
44165;SDS011;30476;53.468;9.826;2022-11-04T15:05:39;1.60;;;1.10;;
44165;SDS011;30476;53.468;9.826;2022-11-04T15:11:00;1.77;;;1.30;;
44165;SDS011;30476;53.468;9.826;2022-11-04T15:13:38;1.53;;;0.90;;
44165;SDS011;30476;53.468;9.826;2022-11-04T15:16:15;0.70;;;0.70;;
44165;SDS011;30476;53.468;9.826;2022-11-04T15:18:46;1.10;;;0.77;;
44165;SDS011;30476;53.468;9.826;2022-11-04T15:21:13;0.90;;;0.80;;
44165;SDS011;30476;53.468;9.826;2022-11-04T15:23:42;1.30;;;0.80;;
44165;SDS011;30476;53.468;9.826;2022-11-04T15:26:29;1.00;;;0.90;;
44165;SDS011;30476;53.468;9.826;2022-11-04T15:28:58;1.93;;;0.80;;
44165;SDS011;30476;53.468;9.826;2022-11-04T15:31:27;1.37;;;1.20;;
44165;SDS011;30476;53.468;9.826;2022-11-04T15:34:00;1.70;;;1.60;;
44165;SDS011;30476;53.468;9.826;2022-11-04T15:36:35;4.33;;;0.80;;
44165;SDS011;30476;53.468;9.826;2022-11-04T15:39:11;1.73;;;0.90;;
44165;SDS011;30476;53.468;9.826;2022-11-04T15:41:41;1.50;;;0.87;;
44165;SDS011;30476;53.468;9.826;2022-11-04T15:44:27;2.23;;;0.80;;
44165;SDS011;30476;53.468;9.826;2022-11-04T15:46:56;0.80;;;0.80;;
44165;SDS011;30476;53.468;9.826;2022-11-04T15:49:25;2.03;;;0.80;;
44165;SDS011;30476;53.468;9.826;2022-11-04T15:51:57;2.03;;;1.07;;
44165;SDS011;30476;53.468;9.826;2022-11-04T15:56:56;1.30;;;0.80;;
44165;SDS011;30476;53.468;9.826;2022-11-04T15:59:31;4.73;;;0.83;;
44165;SDS011;30476;53.468;9.826;2022-11-04T16:01:59;1.40;;;0.90;;
44165;SDS011;30476;53.468;9.826;2022-11-04T16:04:27;2.73;;;0.90;;
44165;SDS011;30476;53.468;9.826;2022-11-04T16:09:45;2.53;;;0.90;;
44165;SDS011;30476;53.468;9.826;2022-11-04T16:14:51;5.10;;;1.27;;
44165;SDS011;30476;53.468;9.826;2022-11-04T16:17:19;3.07;;;1.10;;
44165;SDS011;30476;53.468;9.826;2022-11-04T16:19:59;2.20;;;0.90;;
44165;SDS011;30476;53.468;9.826;2022-11-04T16:24:57;1.33;;;1.00;;
44165;SDS011;30476;53.468;9.826;2022-11-04T16:27:26;2.60;;;1.30;;
44165;SDS011;30476;53.468;9.826;2022-11-04T16:30:11;2.13;;;1.57;;
44165;SDS011;30476;53.468;9.826;2022-11-04T16:32:46;3.33;;;2.07;;
44165;SDS011;30476;53.468;9.826;2022-11-04T16:35:15;1.77;;;1.50;;
44165;SDS011;30476;53.468;9.826;2022-11-04T16:37:43;2.63;;;1.40;;
44165;SDS011;30476;53.468;9.826;2022-11-04T16:40:09;1.60;;;1.50;;
44165;SDS011;30476;53.468;9.826;2022-11-04T16:42:35;2.63;;;1.23;;
44165;SDS011;30476;53.468;9.826;2022-11-04T16:45:02;3.20;;;2.70;;
44165;SDS011;30476;53.468;9.826;2022-11-04T16:47:29;5.80;;;2.37;;
44165;SDS011;30476;53.468;9.826;2022-11-04T16:50:00;2.13;;;1.70;;
44165;SDS011;30476;53.468;9.826;2022-11-04T16:52:26;3.27;;;2.97;;
44165;SDS011;30476;53.468;9.826;2022-11-04T16:54:52;5.17;;;3.33;;
44165;SDS011;30476;53.468;9.826;2022-11-04T16:57:20;4.40;;;4.10;;
44165;SDS011;30476;53.468;9.826;2022-11-04T16:59:47;4.47;;;3.57;;
44165;SDS011;30476;53.468;9.826;2022-11-04T17:02:18;6.53;;;4.00;;
44165;SDS011;30476;53.468;9.826;2022-11-04T17:04:48;3.30;;;3.00;;
44165;SDS011;30476;53.468;9.826;2022-11-04T17:07:14;3.60;;;3.30;;
44165;SDS011;30476;53.468;9.826;2022-11-04T17:09:39;4.10;;;3.73;;
44165;SDS011;30476;53.468;9.826;2022-11-04T17:12:05;6.77;;;4.83;;
44165;SDS011;30476;53.468;9.826;2022-11-04T17:14:31;2.77;;;2.57;;
44165;SDS011;30476;53.468;9.826;2022-11-04T17:16:57;4.10;;;2.37;;
44165;SDS011;30476;53.468;9.826;2022-11-04T17:19:23;4.13;;;1.90;;
44165;SDS011;30476;53.468;9.826;2022-11-04T17:21:49;3.20;;;2.23;;
44165;SDS011;30476;53.468;9.826;2022-11-04T17:24:15;3.70;;;2.07;;